createdAt,value
2019-06-07T00:01:30.228Z,2.05
2019-06-07T00:03:57.112Z,1.62
2019-06-07T00:06:25.699Z,1.70
2019-06-07T00:08:52.978Z,2.08
2019-06-07T00:11:20.660Z,1.90
2019-06-07T00:13:47.609Z,2.70
2019-06-07T00:16:19.084Z,2.30
2019-06-07T00:18:43.048Z,2.50
2019-06-07T00:21:10.031Z,2.47
2019-06-07T00:23:36.989Z,2.42
2019-06-07T00:26:04.053Z,2.47
2019-06-07T00:28:30.883Z,2.40
2019-06-07T00:30:58.217Z,2.42
2019-06-07T00:33:25.312Z,2.42
2019-06-07T00:35:52.235Z,2.20
2019-06-07T00:38:21.728Z,2.30
2019-06-07T00:40:48.061Z,2.10
2019-06-07T00:43:17.585Z,2.20
2019-06-07T00:45:43.658Z,2.00
2019-06-07T00:48:16.049Z,2.40
2019-06-07T00:50:39.348Z,2.42
2019-06-07T00:53:17.550Z,2.40
2019-06-07T00:55:34.787Z,2.40
2019-06-07T00:58:02.544Z,2.42
2019-06-07T01:00:30.906Z,2.50
2019-06-07T01:02:57.755Z,2.60
2019-06-07T01:05:31.097Z,2.15
2019-06-07T01:07:53.177Z,2.20
2019-06-07T01:10:46.482Z,2.25
2019-06-07T01:12:48.885Z,2.45
2019-06-07T01:15:20.564Z,2.50
2019-06-07T01:18:32.651Z,2.60
2019-06-07T01:20:17.336Z,2.42
2019-06-07T01:22:45.367Z,2.30
2019-06-07T01:25:12.296Z,2.40
2019-06-07T01:27:39.092Z,2.60
2019-06-07T01:30:11.233Z,2.12
2019-06-07T01:32:38.067Z,2.60
2019-06-07T01:35:06.703Z,2.45
2019-06-07T01:37:33.533Z,2.65
2019-06-07T01:40:00.328Z,2.50
2019-06-07T01:42:29.523Z,2.30
2019-06-07T01:44:55.744Z,2.20
2019-06-07T01:47:26.582Z,2.90
2019-06-07T01:49:51.232Z,2.75
2019-06-07T01:52:19.519Z,3.02
2019-06-07T01:54:57.962Z,2.80
2019-06-07T01:57:34.268Z,2.33
2019-06-07T01:59:44.706Z,3.60
2019-06-07T02:02:11.557Z,3.25
2019-06-07T02:04:38.485Z,3.20
2019-06-07T02:07:05.270Z,3.10
2019-06-07T02:09:32.367Z,2.93
2019-06-07T02:11:59.321Z,2.20
2019-06-07T02:14:29.817Z,2.60
2019-06-07T02:16:54.757Z,2.75
2019-06-07T02:19:22.021Z,3.47
2019-06-07T02:21:49.143Z,3.35
2019-06-07T02:24:15.988Z,3.10
2019-06-07T02:26:42.821Z,3.37
2019-06-07T02:29:09.604Z,2.90
2019-06-07T02:31:39.710Z,3.00
2019-06-07T02:34:05.083Z,3.00
2019-06-07T02:36:39.241Z,4.10
2019-06-07T02:39:00.534Z,3.30
2019-06-07T02:41:35.331Z,3.62
2019-06-07T02:43:56.416Z,3.08
2019-06-07T02:46:32.527Z,3.50
2019-06-07T02:48:53.381Z,3.10
2019-06-07T02:51:20.227Z,3.00
2019-06-07T02:53:47.049Z,3.30
2019-06-07T02:58:42.476Z,2.80
2019-06-07T03:01:10.030Z,3.10
2019-06-07T03:03:39.952Z,3.20
2019-06-07T03:06:07.253Z,3.10
2019-06-07T03:08:36.725Z,3.40
2019-06-07T03:11:04.764Z,2.40
2019-06-07T03:13:34.906Z,2.27
2019-06-07T03:16:04.493Z,2.67
2019-06-07T03:18:49.729Z,3.00
2019-06-07T03:21:21.985Z,2.77
2019-06-07T03:23:54.352Z,2.47
2019-06-07T03:26:23.857Z,2.72
2019-06-07T03:28:50.653Z,3.10
2019-06-07T03:31:17.491Z,2.57
2019-06-07T03:33:45.521Z,3.00
2019-06-07T03:36:23.364Z,2.60
2019-06-07T03:38:41.253Z,2.50
2019-06-07T03:41:08.088Z,3.20
2019-06-07T03:43:37.793Z,2.70
2019-06-07T03:46:03.608Z,3.20
2019-06-07T03:48:32.283Z,3.42
2019-06-07T03:51:04.469Z,2.80
2019-06-07T03:53:30.483Z,3.50
2019-06-07T03:55:57.069Z,3.37
2019-06-07T03:58:34.708Z,3.37
2019-06-07T04:00:52.494Z,3.80
2019-06-07T04:03:33.397Z,3.60
2019-06-07T04:05:49.087Z,3.77
2019-06-07T04:08:15.995Z,4.37
2019-06-07T04:10:57.996Z,3.40
2019-06-07T04:13:11.510Z,4.05
2019-06-07T04:15:41.222Z,3.40
2019-06-07T04:18:07.070Z,4.10
2019-06-07T04:20:34.552Z,3.80
2019-06-07T04:23:02.588Z,4.20
2019-06-07T04:25:31.757Z,3.67
2019-06-07T04:27:58.109Z,3.30
2019-06-07T04:30:45.104Z,2.95
2019-06-07T04:33:13.493Z,3.90
2019-06-07T04:35:42.888Z,3.70
2019-06-07T04:38:11.273Z,3.87
2019-06-07T04:40:40.008Z,4.10
2019-06-07T04:43:07.892Z,4.10
2019-06-07T04:45:41.822Z,4.25
2019-06-07T04:48:05.120Z,4.10
2019-06-07T04:50:35.364Z,4.20
2019-06-07T04:53:00.897Z,3.42
2019-06-07T04:55:29.053Z,4.40
2019-06-07T04:57:56.340Z,4.50
2019-06-07T05:00:58.768Z,5.10
2019-06-07T05:03:05.345Z,5.10
2019-06-07T05:05:34.361Z,4.80
2019-06-07T05:08:07.470Z,5.42
2019-06-07T05:10:30.743Z,5.22
2019-06-07T05:12:58.849Z,5.20
2019-06-07T05:15:25.788Z,5.85
2019-06-07T05:17:52.569Z,5.80
2019-06-07T05:20:19.722Z,5.80
2019-06-07T05:22:46.502Z,5.95
2019-06-07T05:25:13.990Z,5.75
2019-06-07T05:27:46.719Z,6.70
2019-06-07T05:30:58.537Z,5.70
2019-06-07T05:32:49.321Z,6.12
2019-06-07T05:35:16.162Z,5.28
2019-06-07T05:37:45.840Z,5.70
2019-06-07T05:40:13.617Z,5.72
2019-06-07T05:42:43.307Z,6.40
2019-06-07T05:45:09.113Z,6.30
2019-06-07T05:47:40.329Z,5.50
2019-06-07T05:50:05.714Z,5.60
2019-06-07T05:52:33.220Z,5.90
2019-06-07T05:55:00.864Z,6.70
2019-06-07T05:57:27.723Z,5.90
2019-06-07T05:59:54.595Z,6.53
2019-06-07T06:02:24.574Z,6.10
2019-06-07T06:04:50.088Z,6.50
2019-06-07T06:07:16.898Z,6.08
2019-06-07T06:09:45.956Z,5.83
2019-06-07T06:12:12.324Z,5.78
2019-06-07T06:14:42.252Z,6.00
2019-06-07T06:17:08.221Z,6.60
2019-06-07T06:19:36.819Z,6.70
2019-06-07T06:22:03.667Z,6.17
2019-06-07T06:24:30.493Z,5.70
2019-06-07T06:27:15.314Z,5.83
2019-06-07T06:29:25.924Z,5.30
2019-06-07T06:32:39.480Z,6.12
2019-06-07T06:34:21.408Z,5.92
2019-06-07T06:36:50.350Z,5.62
2019-06-07T06:39:16.906Z,6.15
2019-06-07T06:41:58.625Z,5.90
2019-06-07T06:44:13.469Z,5.55
2019-06-07T06:46:44.836Z,5.00
2019-06-07T06:49:08.888Z,5.55
2019-06-07T06:51:35.674Z,5.30
2019-06-07T06:54:02.756Z,5.00
2019-06-07T06:56:29.554Z,5.28
2019-06-07T07:01:24.976Z,5.20
2019-06-07T07:04:11.262Z,5.10
2019-06-07T07:06:26.285Z,5.10
2019-06-07T07:08:52.783Z,5.50
2019-06-07T07:11:23.250Z,5.17
2019-06-07T07:13:49.893Z,5.30
2019-06-07T07:16:16.153Z,5.90
2019-06-07T07:18:44.246Z,5.00
2019-06-07T07:21:11.588Z,5.37
2019-06-07T07:23:38.445Z,4.40
2019-06-07T07:26:05.234Z,4.75
2019-06-07T07:28:32.062Z,4.42
2019-06-07T07:30:58.929Z,5.17
2019-06-07T07:33:25.812Z,5.90
2019-06-07T07:36:15.705Z,5.10
2019-06-07T07:38:22.132Z,4.70
2019-06-07T07:41:01.541Z,5.20
2019-06-07T07:43:17.698Z,5.05
2019-06-07T07:45:50.563Z,5.28
2019-06-07T07:48:18.017Z,5.40
2019-06-07T07:50:45.117Z,5.05
2019-06-07T07:53:11.052Z,5.20
2019-06-07T07:55:37.930Z,5.17
2019-06-07T07:58:04.766Z,5.03
2019-06-07T08:00:52.374Z,4.70
2019-06-07T08:03:04.441Z,4.78
2019-06-07T08:05:42.480Z,5.50
2019-06-07T08:08:01.462Z,4.67
2019-06-07T08:10:28.915Z,4.72
2019-06-07T08:13:19.555Z,5.08
2019-06-07T08:15:24.376Z,5.67
2019-06-07T08:17:56.006Z,5.85
2019-06-07T08:20:19.844Z,5.10
2019-06-07T08:22:47.673Z,5.35
2019-06-07T08:25:14.989Z,5.37
2019-06-07T08:27:41.812Z,5.67
2019-06-07T08:30:46.664Z,5.10
2019-06-07T08:32:38.713Z,4.80
2019-06-07T08:35:07.009Z,4.75
2019-06-07T08:38:14.109Z,5.00
2019-06-07T08:40:08.532Z,5.28
2019-06-07T08:42:37.297Z,6.40
2019-06-07T08:45:06.592Z,5.10
2019-06-07T08:47:33.433Z,5.90
2019-06-07T08:50:06.296Z,4.87
2019-06-07T08:52:28.885Z,5.10
2019-06-07T08:54:57.825Z,4.60
2019-06-07T08:57:24.272Z,5.20
2019-06-07T08:59:52.892Z,5.60
2019-06-07T09:02:23.847Z,4.40
2019-06-07T09:04:48.429Z,4.90
2019-06-07T09:07:19.924Z,5.20
2019-06-07T09:09:43.897Z,5.10
2019-06-07T09:12:11.699Z,5.23
2019-06-07T09:14:58.656Z,5.20
2019-06-07T09:17:11.706Z,5.20
2019-06-07T09:19:36.024Z,4.55
2019-06-07T09:22:08.221Z,5.40
2019-06-07T09:24:31.471Z,4.50
2019-06-07T09:27:00.405Z,5.80
2019-06-07T09:29:27.056Z,4.80
2019-06-07T09:31:54.018Z,4.60
2019-06-07T09:34:20.786Z,5.45
2019-06-07T09:36:47.795Z,4.30
2019-06-07T09:39:14.618Z,5.35
2019-06-07T09:41:47.495Z,5.00
2019-06-07T09:44:23.694Z,5.40
2019-06-07T09:46:38.641Z,5.12
2019-06-07T09:49:21.131Z,4.70
2019-06-07T09:51:34.113Z,5.20
2019-06-07T09:54:06.081Z,4.97
2019-06-07T09:56:29.624Z,5.05
2019-06-07T09:58:59.550Z,4.47
2019-06-07T10:01:25.257Z,4.95
2019-06-07T10:03:52.142Z,4.70
2019-06-07T10:06:18.959Z,4.70
2019-06-07T10:11:14.392Z,5.30
2019-06-07T10:13:41.249Z,5.22
2019-06-07T10:16:08.852Z,4.45
2019-06-07T10:18:35.780Z,4.75
2019-06-07T10:21:03.723Z,4.00
2019-06-07T10:23:30.839Z,4.67
2019-06-07T10:25:57.668Z,5.30
2019-06-07T10:28:24.528Z,4.37
2019-06-07T10:30:51.448Z,4.05
2019-06-07T10:33:18.220Z,4.23
2019-06-07T10:35:45.013Z,4.00
2019-06-07T10:38:11.849Z,4.17
2019-06-07T10:40:39.082Z,4.15
2019-06-07T10:43:07.104Z,3.70
2019-06-07T10:45:34.110Z,4.35
2019-06-07T10:48:01.494Z,4.00
2019-06-07T10:50:28.545Z,4.22
2019-06-07T10:52:55.333Z,3.67
2019-06-07T10:55:22.164Z,3.75
2019-06-07T10:57:48.961Z,3.72
2019-06-07T11:00:17.933Z,3.62
2019-06-07T11:02:44.788Z,4.05
2019-06-07T11:05:12.390Z,3.20
2019-06-07T11:07:40.037Z,3.05
2019-06-07T11:10:13.378Z,3.60
2019-06-07T11:12:36.105Z,3.12
2019-06-07T11:15:06.621Z,3.10
2019-06-07T11:17:33.551Z,3.17
2019-06-07T11:20:00.396Z,3.60
2019-06-07T11:22:27.238Z,3.00
2019-06-07T11:24:54.025Z,3.02
2019-06-07T11:27:20.856Z,3.20
2019-06-07T11:29:47.651Z,3.05
2019-06-07T11:32:14.681Z,2.90
2019-06-07T11:34:41.637Z,2.75
2019-06-07T11:37:09.454Z,3.20
2019-06-07T11:39:37.077Z,2.80
2019-06-07T11:42:03.857Z,3.08
2019-06-07T11:44:33.577Z,2.70
2019-06-07T11:46:59.684Z,3.10
2019-06-07T11:49:26.584Z,2.90
2019-06-07T11:51:53.371Z,2.98
2019-06-07T11:54:20.702Z,3.00
2019-06-07T11:56:47.689Z,2.90
2019-06-07T11:59:15.332Z,3.10
2019-06-07T12:01:42.355Z,3.00
2019-06-07T12:04:09.774Z,3.20
2019-06-07T12:06:36.561Z,3.47
2019-06-07T12:09:08.430Z,2.90
2019-06-07T12:11:35.517Z,3.10
2019-06-07T12:14:02.741Z,2.80
2019-06-07T12:16:29.588Z,2.85
2019-06-07T12:18:56.422Z,3.00
2019-06-07T12:21:23.218Z,3.00
2019-06-07T12:23:50.040Z,2.90
2019-06-07T12:26:16.884Z,3.10
2019-06-07T12:28:43.724Z,2.92
2019-06-07T12:31:10.871Z,2.90
2019-06-07T12:33:37.745Z,3.08
2019-06-07T12:36:05.385Z,3.00
2019-06-07T12:38:32.169Z,3.20
2019-06-07T12:40:59.012Z,3.30
2019-06-07T12:43:25.846Z,3.10
2019-06-07T12:45:52.727Z,2.70
2019-06-07T12:48:23.754Z,3.00
2019-06-07T12:50:48.117Z,3.33
2019-06-07T12:53:15.635Z,3.08
2019-06-07T12:55:42.649Z,3.65
2019-06-07T12:58:09.581Z,2.90
2019-06-07T13:00:39.072Z,3.20
2019-06-07T13:03:05.909Z,3.00
2019-06-07T13:05:32.710Z,3.00
2019-06-07T13:07:59.612Z,3.52
2019-06-07T13:10:26.405Z,3.40
2019-06-07T13:12:53.246Z,3.40
2019-06-07T13:15:21.965Z,3.00
2019-06-07T13:17:48.833Z,3.70
2019-06-07T13:20:18.076Z,3.15
2019-06-07T13:22:45.142Z,3.50
2019-06-07T13:25:13.324Z,3.20
2019-06-07T13:27:40.172Z,3.00
2019-06-07T13:30:10.294Z,2.72
2019-06-07T13:32:37.341Z,3.30
2019-06-07T13:35:05.596Z,3.30
2019-06-07T13:37:32.380Z,3.10
2019-06-07T13:39:59.217Z,2.80
2019-06-07T13:42:26.521Z,3.07
2019-06-07T13:44:53.466Z,2.90
2019-06-07T13:47:21.167Z,2.90
2019-06-07T13:49:48.452Z,2.60
2019-06-07T13:52:16.511Z,3.10
2019-06-07T13:54:43.301Z,2.77
2019-06-07T13:57:10.126Z,2.80
2019-06-07T13:59:37.224Z,2.90
2019-06-07T14:02:04.022Z,2.90
2019-06-07T14:04:30.995Z,3.00
2019-06-07T14:06:57.971Z,3.07
2019-06-07T14:09:25.255Z,3.33
2019-06-07T14:11:52.138Z,2.80
2019-06-07T14:14:20.110Z,2.90
2019-06-07T14:16:47.085Z,2.92
2019-06-07T14:19:13.992Z,2.83
2019-06-07T14:21:40.922Z,2.58
2019-06-07T14:24:07.741Z,2.60
2019-06-07T14:26:34.533Z,2.70
2019-06-07T14:29:01.313Z,2.62
2019-06-07T14:31:28.193Z,2.77
2019-06-07T14:33:55.016Z,2.43
2019-06-07T14:36:22.707Z,3.10
2019-06-07T14:38:49.707Z,2.90
2019-06-07T14:41:16.536Z,2.75
2019-06-07T14:43:43.400Z,3.00
2019-06-07T14:46:10.261Z,2.70
2019-06-07T14:48:37.073Z,2.75
2019-06-07T14:51:03.929Z,2.40
2019-06-07T14:53:30.946Z,2.58
2019-06-07T14:55:57.877Z,2.75
2019-06-07T14:58:25.033Z,2.83
2019-06-07T15:00:51.897Z,2.90
2019-06-07T15:03:18.745Z,2.70
2019-06-07T15:05:45.692Z,2.80
2019-06-07T15:08:12.437Z,2.70
2019-06-07T15:10:39.455Z,2.90
2019-06-07T15:13:06.397Z,3.15
2019-06-07T15:15:34.597Z,2.70
2019-06-07T15:18:01.799Z,3.12
2019-06-07T15:20:30.295Z,2.77
2019-06-07T15:22:57.252Z,2.98
2019-06-07T15:25:24.081Z,3.30
2019-06-07T15:27:50.872Z,2.90
2019-06-07T15:30:18.184Z,3.20
2019-06-07T15:32:44.997Z,3.35
2019-06-07T15:35:12.034Z,2.90
2019-06-07T15:37:39.378Z,3.40
2019-06-07T15:40:07.293Z,3.30
2019-06-07T15:42:46.096Z,3.42
2019-06-07T15:45:07.449Z,3.33
2019-06-07T15:47:35.864Z,3.65
2019-06-07T15:50:05.834Z,3.65
2019-06-07T15:52:33.667Z,3.52
2019-06-07T15:55:00.456Z,3.37
2019-06-07T15:57:27.354Z,3.50
2019-06-07T15:59:54.129Z,3.45
2019-06-07T16:02:20.950Z,3.20
2019-06-07T16:04:47.792Z,3.20
2019-06-07T16:07:14.585Z,3.33
2019-06-07T16:09:42.749Z,3.40
2019-06-07T16:12:09.721Z,3.90
2019-06-07T16:14:36.948Z,3.37
2019-06-07T16:17:03.881Z,3.50
2019-06-07T16:19:30.725Z,3.58
2019-06-07T16:21:57.558Z,3.50
2019-06-07T16:24:24.878Z,3.50
2019-06-07T16:26:51.829Z,3.40
2019-06-07T16:29:18.717Z,3.50
2019-06-07T16:31:45.502Z,3.90
2019-06-07T16:34:12.337Z,3.50
2019-06-07T16:36:40.382Z,3.43
2019-06-07T16:39:08.038Z,3.45
2019-06-07T16:41:36.376Z,3.50
2019-06-07T16:44:03.741Z,3.60
2019-06-07T16:46:30.579Z,3.70
2019-06-07T16:48:57.409Z,3.50
2019-06-07T16:51:24.193Z,3.60
2019-06-07T16:53:51.024Z,3.70
2019-06-07T16:56:17.869Z,3.60
2019-06-07T16:58:44.665Z,3.60
2019-06-07T17:01:11.511Z,3.60
2019-06-07T17:03:39.301Z,3.50
2019-06-07T17:06:06.416Z,3.70
2019-06-07T17:08:33.194Z,3.83
2019-06-07T17:10:59.989Z,3.65
2019-06-07T17:13:33.265Z,4.03
2019-06-07T17:15:55.449Z,3.60
2019-06-07T17:18:22.281Z,3.72
2019-06-07T17:20:49.403Z,3.90
2019-06-07T17:23:16.409Z,4.00
2019-06-07T17:25:43.517Z,4.20
2019-06-07T17:28:10.435Z,3.90
2019-06-07T17:30:37.282Z,3.90
2019-06-07T17:33:04.113Z,4.20
2019-06-07T17:35:30.891Z,3.90
2019-06-07T17:37:57.732Z,4.40
2019-06-07T17:40:24.516Z,4.30
2019-06-07T17:42:51.355Z,4.20
2019-06-07T17:45:18.479Z,4.00
2019-06-07T17:47:46.000Z,3.77
2019-06-07T17:50:13.109Z,4.30
2019-06-07T17:52:39.885Z,4.40
2019-06-07T17:55:08.248Z,4.10
2019-06-07T17:57:35.040Z,4.10
2019-06-07T18:00:27.190Z,3.95
2019-06-07T18:02:30.662Z,4.40
2019-06-07T18:04:57.453Z,3.92
2019-06-07T18:07:26.301Z,3.50
2019-06-07T18:09:54.398Z,4.22
2019-06-07T18:12:21.344Z,4.17
2019-06-07T18:14:48.125Z,4.00
2019-06-07T18:17:14.949Z,4.20
2019-06-07T18:19:41.821Z,4.12
2019-06-07T18:22:08.653Z,4.03
2019-06-07T18:24:35.495Z,4.00
2019-06-07T18:27:02.365Z,3.90
2019-06-07T18:29:29.197Z,4.40
2019-06-07T18:31:55.986Z,4.47
2019-06-07T18:34:22.804Z,4.20
2019-06-07T18:36:50.923Z,4.65
2019-06-07T18:39:17.939Z,4.58
2019-06-07T18:41:44.764Z,4.30
2019-06-07T18:44:21.152Z,4.60
2019-06-07T18:46:40.402Z,4.60
2019-06-07T18:49:07.229Z,4.20
2019-06-07T18:51:34.020Z,4.90
2019-06-07T18:54:00.866Z,4.72
2019-06-07T18:56:27.634Z,5.10
2019-06-07T18:58:55.323Z,4.40
2019-06-07T19:01:22.261Z,4.70
2019-06-07T19:03:50.280Z,5.58
2019-06-07T19:06:17.334Z,5.00
2019-06-07T19:08:44.244Z,5.80
2019-06-07T19:11:12.205Z,5.00
2019-06-07T19:13:39.094Z,4.70
2019-06-07T19:16:06.041Z,4.40
2019-06-07T19:18:32.943Z,4.90
2019-06-07T19:21:00.641Z,4.83
2019-06-07T19:23:27.733Z,4.37
2019-06-07T19:25:54.711Z,4.85
2019-06-07T19:28:21.758Z,4.83
2019-06-07T19:30:48.676Z,4.30
2019-06-07T19:33:15.633Z,5.08
2019-06-07T19:35:42.487Z,5.70
2019-06-07T19:38:10.126Z,5.37
2019-06-07T19:40:36.992Z,6.03
2019-06-07T19:43:04.101Z,5.97
2019-06-07T19:45:31.792Z,6.50
2019-06-07T19:47:58.801Z,5.90
2019-06-07T19:50:25.684Z,5.22
2019-06-07T19:52:53.110Z,5.60
2019-06-07T19:55:20.052Z,5.27
2019-06-07T19:57:49.975Z,6.33
2019-06-07T20:00:19.852Z,6.20
2019-06-07T20:02:46.702Z,5.20
2019-06-07T20:05:14.684Z,5.50
2019-06-07T20:07:41.876Z,6.30
2019-06-07T20:10:09.674Z,6.42
2019-06-07T20:12:37.501Z,5.60
2019-06-07T20:15:27.067Z,6.83
2019-06-07T20:17:36.297Z,7.33
2019-06-07T20:20:05.197Z,7.33
2019-06-07T20:22:32.031Z,8.00
2019-06-07T20:24:58.894Z,8.55
2019-06-07T20:27:25.750Z,8.30
2019-06-07T20:29:52.548Z,6.92
2019-06-07T20:32:19.336Z,7.20
2019-06-07T20:34:46.162Z,7.33
2019-06-07T20:37:12.979Z,7.00
2019-06-07T20:39:39.779Z,6.85
2019-06-07T20:42:07.854Z,6.40
2019-06-07T20:44:34.800Z,5.87
2019-06-07T20:47:02.177Z,6.08
2019-06-07T20:49:29.089Z,6.20
2019-06-07T20:51:55.940Z,6.70
2019-06-07T20:54:22.733Z,6.40
2019-06-07T20:56:49.685Z,6.60
2019-06-07T20:59:16.520Z,7.40
2019-06-07T21:01:43.349Z,7.10
2019-06-07T21:04:10.186Z,7.28
2019-06-07T21:06:36.974Z,7.30
2019-06-07T21:09:05.997Z,6.67
2019-06-07T21:11:32.777Z,6.50
2019-06-07T21:13:59.944Z,6.53
2019-06-07T21:16:26.908Z,6.33
2019-06-07T21:18:53.732Z,5.97
2019-06-07T21:21:20.569Z,5.28
2019-06-07T21:23:47.701Z,5.60
2019-06-07T21:26:14.868Z,6.60
2019-06-07T21:28:41.681Z,6.10
2019-06-07T21:31:08.461Z,6.00
2019-06-07T21:33:35.298Z,5.80
2019-06-07T21:36:04.417Z,6.20
2019-06-07T21:38:30.740Z,5.40
2019-06-07T21:40:57.615Z,5.20
2019-06-07T21:43:24.405Z,5.92
2019-06-07T21:46:04.399Z,4.28
2019-06-07T21:48:19.825Z,3.90
2019-06-07T21:50:46.608Z,3.75
2019-06-07T21:53:13.639Z,3.37
2019-06-07T21:55:40.416Z,2.80
2019-06-07T21:58:07.253Z,2.30
2019-06-07T22:00:56.224Z,2.30
2019-06-07T22:03:23.154Z,2.30
2019-06-07T22:05:49.944Z,2.10
2019-06-07T22:08:16.759Z,2.10
2019-06-07T22:10:43.536Z,2.40
2019-06-07T22:13:10.365Z,1.70
2019-06-07T22:15:37.623Z,2.10
2019-06-07T22:18:04.600Z,1.92
2019-06-07T22:20:31.466Z,2.10
2019-06-07T22:22:58.253Z,1.65
2019-06-07T22:25:25.082Z,1.80
2019-06-07T22:27:51.865Z,1.70
2019-06-07T22:30:18.837Z,1.60
2019-06-07T22:32:45.675Z,1.50
2019-06-07T22:35:13.008Z,1.55
2019-06-07T22:37:39.990Z,1.70
2019-06-07T22:40:08.322Z,1.52
2019-06-07T22:42:35.619Z,1.30
2019-06-07T22:45:03.753Z,1.27
2019-06-07T22:47:30.585Z,1.77
2019-06-07T22:49:57.376Z,1.52
2019-06-07T22:52:24.211Z,1.80
2019-06-07T22:54:50.988Z,1.60
2019-06-07T22:57:19.630Z,1.73
2019-06-07T22:59:46.456Z,1.70
2019-06-07T23:02:14.583Z,1.20
2019-06-07T23:04:41.456Z,1.90
2019-06-07T23:07:08.863Z,1.70
2019-06-07T23:09:35.807Z,2.10
2019-06-07T23:12:02.692Z,1.40
2019-06-07T23:14:29.525Z,1.62
2019-06-07T23:16:56.428Z,1.30
2019-06-07T23:19:23.316Z,1.20
2019-06-07T23:21:50.088Z,1.10
2019-06-07T23:24:16.921Z,1.50
2019-06-07T23:26:43.708Z,1.30
2019-06-07T23:29:10.532Z,1.20
2019-06-07T23:31:37.318Z,1.20
2019-06-07T23:34:04.153Z,1.00
2019-06-07T23:36:30.952Z,1.00
2019-06-07T23:38:57.784Z,1.20
2019-06-07T23:41:24.594Z,1.00
2019-06-07T23:43:51.404Z,1.40
2019-06-07T23:46:19.403Z,0.98
2019-06-07T23:48:46.403Z,1.00
2019-06-07T23:51:13.589Z,1.42
2019-06-07T23:53:40.536Z,0.90
2019-06-07T23:56:07.332Z,1.20
2019-06-07T23:58:34.148Z,1.13
